• Join FlightAware (Why Join?)
  • Login
  • US Flag 
11:32PM EDT


 

Airport Tracker/Info


-or-


 

Live Flight TrackerFlight Track Log ✈ WBR2634 ✈ 08-Apr-2014 ✈ KBRL - KORD

Flight Track Log - Related Links

Times and Time Zones

All times are in EDT time to prevent confusion due to time zone crossing. See the WBR2634 flight status page for this flight to view local times or setup timezone preferences in your user account.

Time Position Orientation Groundspeed Altitude Reporting Facility
EDT Latitude Longitude Course Direction KTS MPH feet Rate Location/Type
05:43PM 40.8211 -91.0678 73° East 124 143 2,600  Level Chicago Center
05:44PM 40.8336 -91.0131 73° East 130 150 3,500 900 Climbing Chicago Center
05:46PM 40.8578 -90.9183 73° East 134 154 5,500 900 Climbing Chicago Center
05:47PM 40.8700 -90.8731 70° East 133 153 6,400 840 Climbing Chicago Center
05:49PM 40.8925 -90.7819 72° East 133 153 8,300 840 Climbing Chicago Center
05:50PM 40.9047 -90.7217 75° East 135 155 9,100 240 Climbing Chicago Center
05:52PM 40.9319 -90.6083 73° East 161 185 9,100 -60 Level Chicago Center
05:53PM 40.9750 -90.5918 73° East  Level Estimated
05:53PM 40.9464 -90.5556 70° East 156 180 9,000  Level Chicago Center
05:54PM 40.9583 -90.4992 74° East 156 180 9,100 480 Climbing Chicago Center
05:55PM 40.9686 -90.4461 76° East 154 177 10,100 960 Climbing Chicago Center
05:57PM 40.9817 -90.3850 74° East 149 171 11,100 240 Climbing Chicago Center
05:59PM 41.0119 -90.2744 70° East 161 185 11,000 -60 Descending Chicago Center
06:00PM 41.0228 -90.2164 76° East 161 185 11,000  Level Chicago Center
06:01PM 41.0361 -90.1600 73° East 161 185 11,000  Level Chicago Center
06:02PM 41.0503 -90.1039 71° East 161 185 11,000  Level Chicago Center
06:04PM 41.0753 -89.9764 75° East 161 185 11,000  Level Chicago Center
06:05PM 41.0881 -89.9200 73° East 161 185 11,000  Level Chicago Center
06:06PM 41.1025 -89.8650 71° East 160 184 11,100  Climbing Chicago Center
06:07PM 41.1147 -89.8072 74° East 160 184 11,000  Descending Chicago Center
06:08PM 41.1281 -89.7508 73° East 160 184 11,100  Climbing Chicago Center
06:09PM 41.1397 -89.6928 75° East 160 184 11,000  Descending Chicago Center
06:10PM 41.1528 -89.6211 76° East 165 190 11,100 -120 Climbing Chicago Center
06:11PM 41.1669 -89.5650 71° East 164 189 10,800 -420 Descending Chicago Center
06:12PM 41.1856 -89.5106 66° East 164 189 10,300 -780 Descending Chicago Center
06:13PM 41.2106 -89.4614 56° Northeast 163 188 9,300 -1,020 Descending Chicago Center
06:14PM 41.2311 -89.4025 65° Northeast 168 193 8,300 -660 Descending Chicago Center
06:15PM 41.2539 -89.3472 61° Northeast 170 196 8,000 -180 Descending Chicago Center
06:16PM 41.2744 -89.2994 60° Northeast 155 178 8,000  Level Chicago Center
06:17PM 41.2981 -89.2408 62° Northeast 153 176 8,100  Climbing Chicago Center
06:18PM 41.3206 -89.1939 57° Northeast 152 175 8,000  Descending Chicago Center
06:19PM 41.3383 -89.1483 63° Northeast 152 175 8,100  Climbing Chicago Center
06:20PM 41.3639 -89.0900 60° Northeast 152 175 8,000 -60 Descending Chicago Center
06:21PM 41.3842 -89.0397 62° Northeast 152 175 8,000  Level Chicago Center
06:22PM 41.4050 -88.9914 60° Northeast 152 175 8,000  Level Chicago Center
06:23PM 41.4253 -88.9436 60° Northeast 152 175 8,000  Level Chicago Center
06:24PM 41.4461 -88.8928 61° Northeast 152 175 8,100  Climbing Chicago Center
06:25PM 41.4675 -88.8308 65° Northeast 155 178 8,100 -60 Level Chicago Center
06:27PM 41.4867 -88.7803 63° Northeast 155 178 8,000 -60 Descending Chicago Center
06:28PM 41.5072 -88.7253 63° Northeast 155 178 8,000  Level Chicago Center
06:29PM 41.5275 -88.6764 61° Northeast 152 175 8,000  Level Chicago Center
06:30PM 41.5486 -88.6231 62° Northeast 152 175 8,000  Level Chicago Center
06:31PM 41.5667 -88.5717 65° Northeast 153 176 8,000  Level Chicago Center
06:32PM 41.5953 -88.5258 50° Northeast 152 175 8,000  Level Chicago Center
06:33PM 41.6242 -88.4864 46° Northeast 149 171 8,000  Level Chicago Center
06:34PM 41.6517 -88.4431 50° Northeast 144 166 8,000  Level Chicago Center
06:35PM 41.6536 -88.3847 87° East 160 184 8,000  Level Chicago Center
06:36PM 41.6453 -88.3244 100° East 162 186 8,000  Level Chicago Center
06:37PM 41.6483 -88.2639 86° East 159 183 8,000  Level Chicago Center
06:38PM 41.6836 -88.2414 25° Northeast 143 165 8,000  Level Chicago Center
06:39PM 41.7500 -88.2333 North 136 157 8,000  Level Chicago TRACON
06:40PM 41.7636 -88.2403 339° North 139 160 8,000  Level Chicago Center
06:41PM 41.8069 -88.2397 North 141 162 8,000  Level Chicago Center
06:42PM 41.8469 -88.2392 North 142 163 8,000 -120 Level Chicago Center
06:43PM 41.8678 -88.2789 305° West 150 173 7,800 -600 Descending Chicago Center
06:44PM 41.8647 -88.3419 266° West 169 194 6,800 -900 Descending Chicago Center
06:45PM 41.8586 -88.4094 263° West 170 196 6,000 -360 Descending Chicago Center
06:46PM 41.8533 -88.4636 263° West 150 173 6,100  Climbing Chicago Center
06:48PM 41.8525 -88.5689 269° West 139 160 6,000 -60 Descending Chicago Center
06:50PM 41.9236 -88.5478 12° North 158 182 6,000 -240 Level Chicago Center
06:51PM 41.9439 -88.4917 64° Northeast 172 198 5,300 -300 Descending Chicago Center
06:54PM 41.9667 -88.3500 78° East 171 197 5,100 -120 Descending Chicago TRACON
06:55PM 41.9667 -88.2833 90° East 180 207 5,000 -60 Descending Chicago TRACON
06:56PM 41.9628 -88.2269 95° East 174 200 5,000 -360 Level Chicago Center
06:57PM 41.9622 -88.1617 91° East 174 200 4,300 -1,080 Descending Chicago Center
06:58PM 41.9636 -88.0875 89° East 180 207 2,800 -1,080 Descending Chicago Center
07:00PM 41.9667 -87.9667 88° East 168 193 1,100 -660 Descending Chicago TRACON
07:01PM 41.9650 -87.8961 92° East 167 192 800 -300 Descending Chicago Center